sensor_id;sensor_type;location;lat;lon;timestamp;P1;durP1;ratioP1;P2;durP2;ratioP2
13331;SDS011;6735;51.456;12.626;2022-09-01T00:01:50;2.07;;;1.87;;
13331;SDS011;6735;51.456;12.626;2022-09-01T00:04:17;2.47;;;1.80;;
13331;SDS011;6735;51.456;12.626;2022-09-01T00:06:44;2.00;;;1.80;;
13331;SDS011;6735;51.456;12.626;2022-09-01T00:09:13;3.30;;;2.10;;
13331;SDS011;6735;51.456;12.626;2022-09-01T00:11:41;2.00;;;1.90;;
13331;SDS011;6735;51.456;12.626;2022-09-01T00:14:09;3.33;;;2.10;;
13331;SDS011;6735;51.456;12.626;2022-09-01T00:16:35;1.90;;;1.80;;
13331;SDS011;6735;51.456;12.626;2022-09-01T00:19:02;3.13;;;2.13;;
13331;SDS011;6735;51.456;12.626;2022-09-01T00:21:31;2.40;;;1.90;;
13331;SDS011;6735;51.456;12.626;2022-09-01T00:24:02;2.80;;;2.10;;
13331;SDS011;6735;51.456;12.626;2022-09-01T00:26:28;2.10;;;1.90;;
13331;SDS011;6735;51.456;12.626;2022-09-01T00:28:53;3.80;;;2.07;;
13331;SDS011;6735;51.456;12.626;2022-09-01T00:31:19;2.57;;;1.80;;
13331;SDS011;6735;51.456;12.626;2022-09-01T00:33:46;3.60;;;2.00;;
13331;SDS011;6735;51.456;12.626;2022-09-01T00:36:12;2.53;;;2.13;;
13331;SDS011;6735;51.456;12.626;2022-09-01T00:38:38;3.33;;;2.17;;
13331;SDS011;6735;51.456;12.626;2022-09-01T00:41:04;3.23;;;1.80;;
13331;SDS011;6735;51.456;12.626;2022-09-01T00:43:39;3.10;;;2.03;;
13331;SDS011;6735;51.456;12.626;2022-09-01T00:46:09;3.23;;;1.90;;
13331;SDS011;6735;51.456;12.626;2022-09-01T00:48:38;4.60;;;2.17;;
13331;SDS011;6735;51.456;12.626;2022-09-01T00:51:03;2.23;;;2.00;;
13331;SDS011;6735;51.456;12.626;2022-09-01T00:53:31;2.37;;;2.10;;
13331;SDS011;6735;51.456;12.626;2022-09-01T00:55:57;2.07;;;1.83;;
13331;SDS011;6735;51.456;12.626;2022-09-01T00:58:23;2.37;;;2.00;;
13331;SDS011;6735;51.456;12.626;2022-09-01T01:00:48;2.43;;;2.20;;
13331;SDS011;6735;51.456;12.626;2022-09-01T01:03:16;3.73;;;2.27;;
13331;SDS011;6735;51.456;12.626;2022-09-01T01:05:43;2.30;;;1.80;;
13331;SDS011;6735;51.456;12.626;2022-09-01T01:08:17;2.47;;;2.03;;
13331;SDS011;6735;51.456;12.626;2022-09-01T01:10:53;5.20;;;2.20;;
13331;SDS011;6735;51.456;12.626;2022-09-01T01:13:19;2.43;;;2.20;;
13331;SDS011;6735;51.456;12.626;2022-09-01T01:15:45;3.20;;;1.90;;
13331;SDS011;6735;51.456;12.626;2022-09-01T01:18:11;2.47;;;1.80;;
13331;SDS011;6735;51.456;12.626;2022-09-01T01:20:37;2.20;;;2.00;;
13331;SDS011;6735;51.456;12.626;2022-09-01T01:23:43;2.67;;;2.07;;
13331;SDS011;6735;51.456;12.626;2022-09-01T01:26:15;2.30;;;2.10;;
13331;SDS011;6735;51.456;12.626;2022-09-01T01:28:41;3.83;;;2.10;;
13331;SDS011;6735;51.456;12.626;2022-09-01T01:31:09;2.23;;;2.10;;
13331;SDS011;6735;51.456;12.626;2022-09-01T01:33:41;2.77;;;1.80;;
13331;SDS011;6735;51.456;12.626;2022-09-01T01:36:09;2.17;;;1.97;;
13331;SDS011;6735;51.456;12.626;2022-09-01T01:38:38;2.40;;;1.97;;
13331;SDS011;6735;51.456;12.626;2022-09-01T01:41:07;3.43;;;2.20;;
13331;SDS011;6735;51.456;12.626;2022-09-01T01:43:33;2.17;;;2.00;;
13331;SDS011;6735;51.456;12.626;2022-09-01T01:45:59;3.13;;;1.90;;
13331;SDS011;6735;51.456;12.626;2022-09-01T01:48:27;1.90;;;1.80;;
13331;SDS011;6735;51.456;12.626;2022-09-01T01:50:53;2.17;;;1.97;;
13331;SDS011;6735;51.456;12.626;2022-09-01T01:53:22;2.30;;;2.10;;
13331;SDS011;6735;51.456;12.626;2022-09-01T01:55:47;3.83;;;2.00;;
13331;SDS011;6735;51.456;12.626;2022-09-01T01:58:14;2.90;;;1.93;;
13331;SDS011;6735;51.456;12.626;2022-09-01T02:00:41;3.17;;;2.07;;
13331;SDS011;6735;51.456;12.626;2022-09-01T02:03:08;1.97;;;1.87;;
13331;SDS011;6735;51.456;12.626;2022-09-01T02:05:37;3.17;;;2.10;;
13331;SDS011;6735;51.456;12.626;2022-09-01T02:08:04;2.70;;;2.10;;
13331;SDS011;6735;51.456;12.626;2022-09-01T02:10:34;2.23;;;2.03;;
13331;SDS011;6735;51.456;12.626;2022-09-01T02:13:04;2.40;;;2.20;;
13331;SDS011;6735;51.456;12.626;2022-09-01T02:15:53;2.57;;;1.90;;
13331;SDS011;6735;51.456;12.626;2022-09-01T02:18:20;3.47;;;2.17;;
13331;SDS011;6735;51.456;12.626;2022-09-01T02:21:07;3.23;;;2.13;;
13331;SDS011;6735;51.456;12.626;2022-09-01T02:23:35;4.57;;;2.40;;
13331;SDS011;6735;51.456;12.626;2022-09-01T02:26:02;2.47;;;2.27;;
13331;SDS011;6735;51.456;12.626;2022-09-01T02:28:30;2.20;;;2.00;;
13331;SDS011;6735;51.456;12.626;2022-09-01T02:30:58;2.17;;;1.97;;
13331;SDS011;6735;51.456;12.626;2022-09-01T02:33:26;3.07;;;2.10;;
13331;SDS011;6735;51.456;12.626;2022-09-01T02:35:56;4.27;;;2.20;;
13331;SDS011;6735;51.456;12.626;2022-09-01T02:38:24;3.87;;;2.37;;
13331;SDS011;6735;51.456;12.626;2022-09-01T02:40:53;2.60;;;2.40;;
13331;SDS011;6735;51.456;12.626;2022-09-01T02:43:19;2.43;;;2.20;;
13331;SDS011;6735;51.456;12.626;2022-09-01T02:45:49;3.60;;;2.10;;
13331;SDS011;6735;51.456;12.626;2022-09-01T02:48:18;4.57;;;2.20;;
13331;SDS011;6735;51.456;12.626;2022-09-01T02:50:46;2.87;;;2.20;;
13331;SDS011;6735;51.456;12.626;2022-09-01T02:53:12;3.40;;;2.40;;
13331;SDS011;6735;51.456;12.626;2022-09-01T02:55:39;2.67;;;2.20;;
13331;SDS011;6735;51.456;12.626;2022-09-01T02:58:06;2.80;;;2.00;;
13331;SDS011;6735;51.456;12.626;2022-09-01T03:00:43;2.33;;;2.13;;
13331;SDS011;6735;51.456;12.626;2022-09-01T03:03:10;2.67;;;2.47;;
13331;SDS011;6735;51.456;12.626;2022-09-01T03:05:43;3.73;;;2.20;;
13331;SDS011;6735;51.456;12.626;2022-09-01T03:08:09;2.50;;;2.30;;
13331;SDS011;6735;51.456;12.626;2022-09-01T03:10:39;2.60;;;2.40;;
13331;SDS011;6735;51.456;12.626;2022-09-01T03:13:15;2.80;;;2.33;;
13331;SDS011;6735;51.456;12.626;2022-09-01T03:15:44;2.37;;;2.17;;
13331;SDS011;6735;51.456;12.626;2022-09-01T03:18:10;2.57;;;2.13;;
13331;SDS011;6735;51.456;12.626;2022-09-01T03:20:38;4.30;;;2.23;;
13331;SDS011;6735;51.456;12.626;2022-09-01T03:23:08;2.30;;;2.10;;
13331;SDS011;6735;51.456;12.626;2022-09-01T03:25:36;2.77;;;2.30;;
13331;SDS011;6735;51.456;12.626;2022-09-01T03:28:03;2.10;;;2.00;;
13331;SDS011;6735;51.456;12.626;2022-09-01T03:30:30;2.23;;;2.10;;
13331;SDS011;6735;51.456;12.626;2022-09-01T03:32:58;2.20;;;2.10;;
13331;SDS011;6735;51.456;12.626;2022-09-01T03:35:25;2.50;;;2.20;;
13331;SDS011;6735;51.456;12.626;2022-09-01T03:37:52;2.50;;;2.30;;
13331;SDS011;6735;51.456;12.626;2022-09-01T03:40:19;3.30;;;2.30;;
13331;SDS011;6735;51.456;12.626;2022-09-01T03:42:45;2.90;;;2.37;;
13331;SDS011;6735;51.456;12.626;2022-09-01T03:45:11;3.33;;;2.03;;
13331;SDS011;6735;51.456;12.626;2022-09-01T03:47:41;3.37;;;2.37;;
13331;SDS011;6735;51.456;12.626;2022-09-01T03:50:08;4.50;;;2.30;;
13331;SDS011;6735;51.456;12.626;2022-09-01T03:52:46;2.30;;;2.10;;
13331;SDS011;6735;51.456;12.626;2022-09-01T03:55:15;2.60;;;2.40;;
13331;SDS011;6735;51.456;12.626;2022-09-01T03:57:47;2.90;;;2.30;;
13331;SDS011;6735;51.456;12.626;2022-09-01T04:00:14;2.17;;;1.97;;
13331;SDS011;6735;51.456;12.626;2022-09-01T04:02:45;3.47;;;2.40;;
13331;SDS011;6735;51.456;12.626;2022-09-01T04:05:13;2.20;;;2.10;;
13331;SDS011;6735;51.456;12.626;2022-09-01T04:07:39;2.80;;;2.50;;
13331;SDS011;6735;51.456;12.626;2022-09-01T04:10:04;4.70;;;2.30;;
13331;SDS011;6735;51.456;12.626;2022-09-01T04:12:35;2.50;;;2.30;;
13331;SDS011;6735;51.456;12.626;2022-09-01T04:15:01;2.40;;;2.20;;
13331;SDS011;6735;51.456;12.626;2022-09-01T04:17:26;2.63;;;2.23;;
13331;SDS011;6735;51.456;12.626;2022-09-01T04:20:11;3.00;;;2.10;;
13331;SDS011;6735;51.456;12.626;2022-09-01T04:22:36;3.80;;;2.60;;
13331;SDS011;6735;51.456;12.626;2022-09-01T04:25:03;2.67;;;2.20;;
13331;SDS011;6735;51.456;12.626;2022-09-01T04:27:29;3.67;;;2.47;;
13331;SDS011;6735;51.456;12.626;2022-09-01T04:29:55;5.20;;;2.40;;
13331;SDS011;6735;51.456;12.626;2022-09-01T04:32:20;2.60;;;2.40;;
13331;SDS011;6735;51.456;12.626;2022-09-01T04:34:47;4.67;;;2.40;;
13331;SDS011;6735;51.456;12.626;2022-09-01T04:37:14;3.13;;;2.43;;
13331;SDS011;6735;51.456;12.626;2022-09-01T04:39:51;3.77;;;3.00;;
13331;SDS011;6735;51.456;12.626;2022-09-01T04:42:18;2.80;;;2.60;;
13331;SDS011;6735;51.456;12.626;2022-09-01T04:44:48;3.13;;;2.30;;
13331;SDS011;6735;51.456;12.626;2022-09-01T04:47:15;2.60;;;2.30;;
13331;SDS011;6735;51.456;12.626;2022-09-01T04:49:43;2.70;;;2.40;;
13331;SDS011;6735;51.456;12.626;2022-09-01T04:52:11;2.73;;;2.40;;
13331;SDS011;6735;51.456;12.626;2022-09-01T04:54:37;4.53;;;2.33;;
13331;SDS011;6735;51.456;12.626;2022-09-01T04:57:03;3.83;;;2.20;;
13331;SDS011;6735;51.456;12.626;2022-09-01T04:59:31;3.70;;;2.23;;
13331;SDS011;6735;51.456;12.626;2022-09-01T05:01:57;4.33;;;2.20;;
13331;SDS011;6735;51.456;12.626;2022-09-01T05:04:25;2.73;;;2.40;;
13331;SDS011;6735;51.456;12.626;2022-09-01T05:06:54;2.47;;;2.10;;
13331;SDS011;6735;51.456;12.626;2022-09-01T05:09:25;4.83;;;2.33;;
13331;SDS011;6735;51.456;12.626;2022-09-01T05:11:52;4.47;;;2.47;;
13331;SDS011;6735;51.456;12.626;2022-09-01T05:14:18;7.03;;;2.30;;
13331;SDS011;6735;51.456;12.626;2022-09-01T05:16:46;3.60;;;2.07;;
13331;SDS011;6735;51.456;12.626;2022-09-01T05:19:12;4.53;;;2.30;;
13331;SDS011;6735;51.456;12.626;2022-09-01T05:21:41;2.50;;;2.30;;
13331;SDS011;6735;51.456;12.626;2022-09-01T05:24:09;4.10;;;2.30;;
13331;SDS011;6735;51.456;12.626;2022-09-01T05:26:39;2.10;;;2.00;;
13331;SDS011;6735;51.456;12.626;2022-09-01T05:29:06;2.57;;;2.33;;
13331;SDS011;6735;51.456;12.626;2022-09-01T05:31:34;2.90;;;2.07;;
13331;SDS011;6735;51.456;12.626;2022-09-01T05:34:02;2.67;;;2.40;;
13331;SDS011;6735;51.456;12.626;2022-09-01T05:36:28;2.30;;;2.10;;
13331;SDS011;6735;51.456;12.626;2022-09-01T05:38:57;2.37;;;2.10;;
13331;SDS011;6735;51.456;12.626;2022-09-01T05:41:24;3.27;;;1.93;;
13331;SDS011;6735;51.456;12.626;2022-09-01T05:43:50;3.50;;;3.20;;
13331;SDS011;6735;51.456;12.626;2022-09-01T05:46:18;3.60;;;2.40;;
13331;SDS011;6735;51.456;12.626;2022-09-01T05:48:46;2.20;;;2.00;;
13331;SDS011;6735;51.456;12.626;2022-09-01T05:51:13;2.87;;;2.20;;
13331;SDS011;6735;51.456;12.626;2022-09-01T05:53:42;1.97;;;1.87;;
13331;SDS011;6735;51.456;12.626;2022-09-01T05:56:08;3.00;;;1.90;;
13331;SDS011;6735;51.456;12.626;2022-09-01T05:58:37;2.30;;;2.10;;
13331;SDS011;6735;51.456;12.626;2022-09-01T06:01:04;4.33;;;2.27;;
13331;SDS011;6735;51.456;12.626;2022-09-01T06:03:30;2.10;;;1.90;;
13331;SDS011;6735;51.456;12.626;2022-09-01T06:06:02;3.30;;;2.10;;
13331;SDS011;6735;51.456;12.626;2022-09-01T06:08:30;2.40;;;2.20;;
13331;SDS011;6735;51.456;12.626;2022-09-01T06:10:56;3.50;;;2.10;;
13331;SDS011;6735;51.456;12.626;2022-09-01T06:13:21;4.77;;;3.47;;
13331;SDS011;6735;51.456;12.626;2022-09-01T06:15:50;3.40;;;3.03;;
13331;SDS011;6735;51.456;12.626;2022-09-01T06:18:22;2.70;;;2.00;;
13331;SDS011;6735;51.456;12.626;2022-09-01T06:20:48;1.97;;;1.87;;
13331;SDS011;6735;51.456;12.626;2022-09-01T06:23:14;2.73;;;1.90;;
13331;SDS011;6735;51.456;12.626;2022-09-01T06:25:42;2.00;;;1.90;;
13331;SDS011;6735;51.456;12.626;2022-09-01T06:28:10;3.03;;;2.10;;
13331;SDS011;6735;51.456;12.626;2022-09-01T06:30:40;2.13;;;1.90;;
13331;SDS011;6735;51.456;12.626;2022-09-01T06:33:08;1.90;;;1.80;;
13331;SDS011;6735;51.456;12.626;2022-09-01T06:35:35;3.30;;;2.60;;
13331;SDS011;6735;51.456;12.626;2022-09-01T06:38:02;2.30;;;1.90;;
13331;SDS011;6735;51.456;12.626;2022-09-01T06:40:28;2.77;;;1.90;;
13331;SDS011;6735;51.456;12.626;2022-09-01T06:42:54;2.20;;;2.00;;
13331;SDS011;6735;51.456;12.626;2022-09-01T06:45:21;2.60;;;1.80;;
13331;SDS011;6735;51.456;12.626;2022-09-01T06:47:48;1.80;;;1.67;;
13331;SDS011;6735;51.456;12.626;2022-09-01T06:50:17;3.83;;;1.97;;
13331;SDS011;6735;51.456;12.626;2022-09-01T06:52:46;2.37;;;1.83;;
13331;SDS011;6735;51.456;12.626;2022-09-01T06:55:14;3.40;;;1.93;;
13331;SDS011;6735;51.456;12.626;2022-09-01T06:57:41;2.23;;;1.97;;
13331;SDS011;6735;51.456;12.626;2022-09-01T07:00:12;2.10;;;1.90;;
13331;SDS011;6735;51.456;12.626;2022-09-01T07:02:44;3.70;;;1.90;;
13331;SDS011;6735;51.456;12.626;2022-09-01T07:05:12;2.60;;;1.90;;
13331;SDS011;6735;51.456;12.626;2022-09-01T07:07:47;1.87;;;1.77;;
13331;SDS011;6735;51.456;12.626;2022-09-01T07:10:15;2.77;;;1.80;;
13331;SDS011;6735;51.456;12.626;2022-09-01T07:12:44;4.20;;;1.57;;
13331;SDS011;6735;51.456;12.626;2022-09-01T07:15:10;2.87;;;1.80;;
13331;SDS011;6735;51.456;12.626;2022-09-01T07:17:41;2.00;;;1.80;;
13331;SDS011;6735;51.456;12.626;2022-09-01T07:20:16;3.57;;;2.37;;
13331;SDS011;6735;51.456;12.626;2022-09-01T07:22:45;3.00;;;1.90;;
13331;SDS011;6735;51.456;12.626;2022-09-01T07:25:11;2.70;;;1.77;;
13331;SDS011;6735;51.456;12.626;2022-09-01T07:27:40;2.30;;;1.63;;
13331;SDS011;6735;51.456;12.626;2022-09-01T07:30:13;3.30;;;1.90;;
13331;SDS011;6735;51.456;12.626;2022-09-01T07:32:39;2.20;;;2.00;;
13331;SDS011;6735;51.456;12.626;2022-09-01T07:35:07;3.83;;;1.90;;
13331;SDS011;6735;51.456;12.626;2022-09-01T07:37:34;1.70;;;1.60;;
13331;SDS011;6735;51.456;12.626;2022-09-01T07:40:02;1.73;;;1.60;;
13331;SDS011;6735;51.456;12.626;2022-09-01T07:42:30;1.80;;;1.70;;
13331;SDS011;6735;51.456;12.626;2022-09-01T07:44:55;2.10;;;1.50;;
13331;SDS011;6735;51.456;12.626;2022-09-01T07:47:22;2.80;;;1.90;;
13331;SDS011;6735;51.456;12.626;2022-09-01T07:49:47;3.77;;;2.17;;
13331;SDS011;6735;51.456;12.626;2022-09-01T07:52:13;3.33;;;2.20;;
13331;SDS011;6735;51.456;12.626;2022-09-01T07:54:39;2.27;;;1.73;;
13331;SDS011;6735;51.456;12.626;2022-09-01T07:57:04;5.27;;;2.13;;
13331;SDS011;6735;51.456;12.626;2022-09-01T07:59:30;2.30;;;2.10;;
13331;SDS011;6735;51.456;12.626;2022-09-01T08:01:57;2.87;;;1.97;;
13331;SDS011;6735;51.456;12.626;2022-09-01T08:04:22;3.07;;;1.93;;
13331;SDS011;6735;51.456;12.626;2022-09-01T08:06:48;2.70;;;2.00;;
13331;SDS011;6735;51.456;12.626;2022-09-01T08:09:14;2.63;;;1.97;;
13331;SDS011;6735;51.456;12.626;2022-09-01T08:11:40;4.87;;;2.10;;
13331;SDS011;6735;51.456;12.626;2022-09-01T08:14:06;2.03;;;1.80;;
13331;SDS011;6735;51.456;12.626;2022-09-01T08:16:32;2.73;;;1.97;;
13331;SDS011;6735;51.456;12.626;2022-09-01T08:18:58;2.47;;;1.93;;
13331;SDS011;6735;51.456;12.626;2022-09-01T08:21:24;2.90;;;2.00;;
13331;SDS011;6735;51.456;12.626;2022-09-01T08:23:51;2.53;;;1.90;;
13331;SDS011;6735;51.456;12.626;2022-09-01T08:26:19;2.13;;;1.70;;
13331;SDS011;6735;51.456;12.626;2022-09-01T08:28:47;4.60;;;2.30;;
13331;SDS011;6735;51.456;12.626;2022-09-01T08:31:15;4.03;;;2.10;;
13331;SDS011;6735;51.456;12.626;2022-09-01T08:33:42;4.30;;;2.03;;
13331;SDS011;6735;51.456;12.626;2022-09-01T08:36:10;2.77;;;1.97;;
13331;SDS011;6735;51.456;12.626;2022-09-01T08:38:37;3.27;;;2.17;;
13331;SDS011;6735;51.456;12.626;2022-09-01T08:41:04;2.37;;;1.80;;
13331;SDS011;6735;51.456;12.626;2022-09-01T08:46:37;2.17;;;2.00;;
13331;SDS011;6735;51.456;12.626;2022-09-01T08:49:06;5.80;;;2.00;;
13331;SDS011;6735;51.456;12.626;2022-09-01T08:51:45;6.50;;;2.00;;
13331;SDS011;6735;51.456;12.626;2022-09-01T08:54:24;2.90;;;1.90;;
13331;SDS011;6735;51.456;12.626;2022-09-01T08:57:49;3.33;;;1.77;;
13331;SDS011;6735;51.456;12.626;2022-09-01T09:00:10;4.93;;;1.90;;
13331;SDS011;6735;51.456;12.626;2022-09-01T09:08:38;2.40;;;1.73;;
13331;SDS011;6735;51.456;12.626;2022-09-01T09:11:25;2.00;;;1.90;;
13331;SDS011;6735;51.456;12.626;2022-09-01T09:14:18;4.50;;;2.10;;
13331;SDS011;6735;51.456;12.626;2022-09-01T09:16:55;2.40;;;2.17;;
13331;SDS011;6735;51.456;12.626;2022-09-01T09:19:21;2.70;;;1.90;;
13331;SDS011;6735;51.456;12.626;2022-09-01T09:21:57;2.20;;;2.00;;
13331;SDS011;6735;51.456;12.626;2022-09-01T09:24:28;2.47;;;1.60;;
13331;SDS011;6735;51.456;12.626;2022-09-01T09:27:11;4.37;;;2.53;;
13331;SDS011;6735;51.456;12.626;2022-09-01T09:29:42;4.87;;;1.90;;
13331;SDS011;6735;51.456;12.626;2022-09-01T09:32:08;2.37;;;2.00;;
13331;SDS011;6735;51.456;12.626;2022-09-01T09:34:35;2.37;;;2.10;;
13331;SDS011;6735;51.456;12.626;2022-09-01T09:37:16;4.37;;;2.00;;
13331;SDS011;6735;51.456;12.626;2022-09-01T09:40:00;2.93;;;1.80;;
13331;SDS011;6735;51.456;12.626;2022-09-01T09:42:26;3.03;;;1.50;;
13331;SDS011;6735;51.456;12.626;2022-09-01T09:44:52;1.93;;;1.70;;
13331;SDS011;6735;51.456;12.626;2022-09-01T09:47:36;2.27;;;1.50;;
13331;SDS011;6735;51.456;12.626;2022-09-01T09:52:41;2.60;;;2.00;;
13331;SDS011;6735;51.456;12.626;2022-09-01T09:55:24;2.40;;;1.60;;
13331;SDS011;6735;51.456;12.626;2022-09-01T09:58:00;4.67;;;1.77;;
13331;SDS011;6735;51.456;12.626;2022-09-01T10:00:33;1.83;;;1.50;;
13331;SDS011;6735;51.456;12.626;2022-09-01T10:03:03;2.73;;;1.70;;
13331;SDS011;6735;51.456;12.626;2022-09-01T10:05:42;1.70;;;1.60;;
13331;SDS011;6735;51.456;12.626;2022-09-01T10:08:58;1.70;;;1.53;;
13331;SDS011;6735;51.456;12.626;2022-09-01T10:11:08;5.20;;;3.10;;
13331;SDS011;6735;51.456;12.626;2022-09-01T10:13:37;1.53;;;1.30;;
13331;SDS011;6735;51.456;12.626;2022-09-01T10:16:06;1.73;;;1.63;;
13331;SDS011;6735;51.456;12.626;2022-09-01T10:18:38;2.07;;;1.60;;
13331;SDS011;6735;51.456;12.626;2022-09-01T10:21:10;2.50;;;1.77;;
13331;SDS011;6735;51.456;12.626;2022-09-01T10:23:39;1.47;;;1.00;;
13331;SDS011;6735;51.456;12.626;2022-09-01T10:26:08;2.60;;;1.23;;
13331;SDS011;6735;51.456;12.626;2022-09-01T10:28:47;2.73;;;1.30;;
13331;SDS011;6735;51.456;12.626;2022-09-01T10:31:30;2.20;;;1.20;;
13331;SDS011;6735;51.456;12.626;2022-09-01T10:33:55;2.33;;;2.10;;
13331;SDS011;6735;51.456;12.626;2022-09-01T10:36:23;1.83;;;1.37;;
13331;SDS011;6735;51.456;12.626;2022-09-01T10:38:49;2.57;;;1.00;;
13331;SDS011;6735;51.456;12.626;2022-09-01T10:44:09;1.47;;;1.37;;
13331;SDS011;6735;51.456;12.626;2022-09-01T10:46:41;1.30;;;1.20;;
13331;SDS011;6735;51.456;12.626;2022-09-01T10:51:56;1.63;;;1.20;;
13331;SDS011;6735;51.456;12.626;2022-09-01T10:57:04;1.20;;;1.00;;
13331;SDS011;6735;51.456;12.626;2022-09-01T10:59:36;1.93;;;1.10;;
13331;SDS011;6735;51.456;12.626;2022-09-01T11:02:04;1.77;;;1.23;;
13331;SDS011;6735;51.456;12.626;2022-09-01T11:10:13;1.10;;;1.10;;
13331;SDS011;6735;51.456;12.626;2022-09-01T11:13:04;1.63;;;0.93;;
13331;SDS011;6735;51.456;12.626;2022-09-01T11:15:46;1.43;;;1.23;;
13331;SDS011;6735;51.456;12.626;2022-09-01T11:18:14;1.07;;;1.00;;
13331;SDS011;6735;51.456;12.626;2022-09-01T11:20:47;1.30;;;1.20;;
13331;SDS011;6735;51.456;12.626;2022-09-01T11:23:23;1.63;;;1.00;;
13331;SDS011;6735;51.456;12.626;2022-09-01T11:25:52;0.90;;;0.90;;
13331;SDS011;6735;51.456;12.626;2022-09-01T11:30:53;3.17;;;1.07;;
13331;SDS011;6735;51.456;12.626;2022-09-01T11:33:25;2.83;;;1.20;;
13331;SDS011;6735;51.456;12.626;2022-09-01T11:38:45;1.40;;;1.30;;
13331;SDS011;6735;51.456;12.626;2022-09-01T11:41:51;2.70;;;1.10;;
13331;SDS011;6735;51.456;12.626;2022-09-01T11:44:30;1.47;;;1.27;;
13331;SDS011;6735;51.456;12.626;2022-09-01T11:47:12;1.20;;;1.10;;
13331;SDS011;6735;51.456;12.626;2022-09-01T11:49:47;1.20;;;1.10;;
13331;SDS011;6735;51.456;12.626;2022-09-01T11:52:16;1.27;;;1.10;;
13331;SDS011;6735;51.456;12.626;2022-09-01T11:54:44;1.43;;;1.13;;
13331;SDS011;6735;51.456;12.626;2022-09-01T11:57:20;1.00;;;0.90;;
13331;SDS011;6735;51.456;12.626;2022-09-01T11:59:52;1.23;;;1.10;;
13331;SDS011;6735;51.456;12.626;2022-09-01T12:02:20;0.90;;;0.90;;
13331;SDS011;6735;51.456;12.626;2022-09-01T12:07:55;1.53;;;1.20;;
13331;SDS011;6735;51.456;12.626;2022-09-01T12:10:34;2.00;;;1.33;;
13331;SDS011;6735;51.456;12.626;2022-09-01T12:13:09;1.10;;;1.00;;
13331;SDS011;6735;51.456;12.626;2022-09-01T12:15:42;1.63;;;0.90;;
13331;SDS011;6735;51.456;12.626;2022-09-01T12:18:10;1.10;;;1.00;;
13331;SDS011;6735;51.456;12.626;2022-09-01T12:20:43;2.77;;;1.10;;
13331;SDS011;6735;51.456;12.626;2022-09-01T12:26:00;2.07;;;1.00;;
13331;SDS011;6735;51.456;12.626;2022-09-01T12:28:30;0.97;;;0.97;;
13331;SDS011;6735;51.456;12.626;2022-09-01T12:31:01;1.20;;;1.10;;
13331;SDS011;6735;51.456;12.626;2022-09-01T12:33:30;2.00;;;1.03;;
13331;SDS011;6735;51.456;12.626;2022-09-01T12:38:44;1.93;;;0.90;;
13331;SDS011;6735;51.456;12.626;2022-09-01T12:41:26;0.80;;;0.80;;
13331;SDS011;6735;51.456;12.626;2022-09-01T12:46:55;2.80;;;1.10;;
13331;SDS011;6735;51.456;12.626;2022-09-01T12:49:24;1.20;;;1.10;;
13331;SDS011;6735;51.456;12.626;2022-09-01T12:52:05;1.17;;;1.10;;
13331;SDS011;6735;51.456;12.626;2022-09-01T12:55:05;3.17;;;1.30;;
13331;SDS011;6735;51.456;12.626;2022-09-01T12:57:40;2.13;;;1.50;;
13331;SDS011;6735;51.456;12.626;2022-09-01T13:00:15;1.70;;;0.90;;
13331;SDS011;6735;51.456;12.626;2022-09-01T13:05:29;1.37;;;1.27;;
13331;SDS011;6735;51.456;12.626;2022-09-01T13:07:55;1.60;;;1.10;;
13331;SDS011;6735;51.456;12.626;2022-09-01T13:10:24;0.93;;;0.93;;
13331;SDS011;6735;51.456;12.626;2022-09-01T13:12:52;2.37;;;1.10;;
13331;SDS011;6735;51.456;12.626;2022-09-01T13:15:21;2.10;;;1.10;;
13331;SDS011;6735;51.456;12.626;2022-09-01T13:17:49;0.83;;;0.83;;
13331;SDS011;6735;51.456;12.626;2022-09-01T13:20:15;1.93;;;1.00;;
13331;SDS011;6735;51.456;12.626;2022-09-01T13:22:40;1.63;;;0.90;;
13331;SDS011;6735;51.456;12.626;2022-09-01T13:25:08;0.70;;;0.70;;
13331;SDS011;6735;51.456;12.626;2022-09-01T13:27:37;2.00;;;1.17;;
13331;SDS011;6735;51.456;12.626;2022-09-01T13:30:05;1.97;;;1.00;;
13331;SDS011;6735;51.456;12.626;2022-09-01T13:32:30;1.43;;;0.90;;
13331;SDS011;6735;51.456;12.626;2022-09-01T13:34:56;3.70;;;1.10;;
13331;SDS011;6735;51.456;12.626;2022-09-01T13:37:22;3.20;;;1.20;;
13331;SDS011;6735;51.456;12.626;2022-09-01T13:39:48;0.90;;;0.90;;
13331;SDS011;6735;51.456;12.626;2022-09-01T13:42:14;1.50;;;1.00;;
13331;SDS011;6735;51.456;12.626;2022-09-01T13:44:40;1.10;;;0.80;;
13331;SDS011;6735;51.456;12.626;2022-09-01T13:47:05;1.57;;;0.97;;
13331;SDS011;6735;51.456;12.626;2022-09-01T13:49:31;1.33;;;1.30;;
13331;SDS011;6735;51.456;12.626;2022-09-01T13:51:56;0.80;;;0.80;;
13331;SDS011;6735;51.456;12.626;2022-09-01T13:54:22;1.40;;;1.00;;
13331;SDS011;6735;51.456;12.626;2022-09-01T13:56:47;2.27;;;1.70;;
13331;SDS011;6735;51.456;12.626;2022-09-01T13:59:13;1.10;;;1.00;;
13331;SDS011;6735;51.456;12.626;2022-09-01T14:01:38;1.03;;;0.70;;
13331;SDS011;6735;51.456;12.626;2022-09-01T14:04:06;2.03;;;1.30;;
13331;SDS011;6735;51.456;12.626;2022-09-01T14:06:38;0.90;;;0.90;;
13331;SDS011;6735;51.456;12.626;2022-09-01T14:09:04;1.03;;;0.90;;
13331;SDS011;6735;51.456;12.626;2022-09-01T14:11:29;4.57;;;1.30;;
13331;SDS011;6735;51.456;12.626;2022-09-01T14:13:56;1.20;;;1.10;;
13331;SDS011;6735;51.456;12.626;2022-09-01T14:16:21;3.03;;;1.30;;
13331;SDS011;6735;51.456;12.626;2022-09-01T14:18:47;2.73;;;1.20;;
13331;SDS011;6735;51.456;12.626;2022-09-01T14:21:13;4.20;;;1.10;;
13331;SDS011;6735;51.456;12.626;2022-09-01T14:23:40;1.67;;;1.03;;
13331;SDS011;6735;51.456;12.626;2022-09-01T14:26:10;0.70;;;0.70;;
13331;SDS011;6735;51.456;12.626;2022-09-01T14:28:40;1.20;;;1.10;;
13331;SDS011;6735;51.456;12.626;2022-09-01T14:31:10;3.50;;;1.27;;
13331;SDS011;6735;51.456;12.626;2022-09-01T14:33:37;1.50;;;1.10;;
13331;SDS011;6735;51.456;12.626;2022-09-01T14:36:04;1.40;;;1.10;;
13331;SDS011;6735;51.456;12.626;2022-09-01T14:38:31;1.70;;;0.80;;
13331;SDS011;6735;51.456;12.626;2022-09-01T14:40:57;1.00;;;1.00;;
13331;SDS011;6735;51.456;12.626;2022-09-01T14:43:22;0.97;;;0.97;;
13331;SDS011;6735;51.456;12.626;2022-09-01T14:45:49;1.57;;;1.00;;
13331;SDS011;6735;51.456;12.626;2022-09-01T14:48:16;2.17;;;2.00;;
13331;SDS011;6735;51.456;12.626;2022-09-01T14:50:45;2.77;;;1.03;;
13331;SDS011;6735;51.456;12.626;2022-09-01T14:53:12;1.47;;;1.30;;
13331;SDS011;6735;51.456;12.626;2022-09-01T14:55:38;1.23;;;1.13;;
13331;SDS011;6735;51.456;12.626;2022-09-01T14:58:04;1.03;;;0.93;;
13331;SDS011;6735;51.456;12.626;2022-09-01T15:00:30;3.53;;;1.10;;
13331;SDS011;6735;51.456;12.626;2022-09-01T15:02:58;1.67;;;1.00;;
13331;SDS011;6735;51.456;12.626;2022-09-01T15:05:24;3.93;;;1.20;;
13331;SDS011;6735;51.456;12.626;2022-09-01T15:07:50;1.30;;;1.20;;
13331;SDS011;6735;51.456;12.626;2022-09-01T15:10:17;1.57;;;1.10;;
13331;SDS011;6735;51.456;12.626;2022-09-01T15:12:50;1.33;;;1.10;;
13331;SDS011;6735;51.456;12.626;2022-09-01T15:15:16;2.53;;;1.30;;
13331;SDS011;6735;51.456;12.626;2022-09-01T15:17:42;2.17;;;1.30;;
13331;SDS011;6735;51.456;12.626;2022-09-01T15:20:07;1.57;;;1.20;;
13331;SDS011;6735;51.456;12.626;2022-09-01T15:22:52;1.50;;;1.40;;
13331;SDS011;6735;51.456;12.626;2022-09-01T15:25:18;4.13;;;2.90;;
13331;SDS011;6735;51.456;12.626;2022-09-01T15:27:44;1.73;;;1.27;;
13331;SDS011;6735;51.456;12.626;2022-09-01T15:30:10;1.33;;;1.20;;
13331;SDS011;6735;51.456;12.626;2022-09-01T15:32:40;0.97;;;0.90;;
13331;SDS011;6735;51.456;12.626;2022-09-01T15:35:07;1.27;;;1.17;;
13331;SDS011;6735;51.456;12.626;2022-09-01T15:37:33;4.77;;;1.20;;
13331;SDS011;6735;51.456;12.626;2022-09-01T15:39:59;1.20;;;1.00;;
13331;SDS011;6735;51.456;12.626;2022-09-01T15:42:24;1.27;;;1.07;;
13331;SDS011;6735;51.456;12.626;2022-09-01T15:44:50;1.23;;;1.00;;
13331;SDS011;6735;51.456;12.626;2022-09-01T15:47:16;5.47;;;4.10;;